createdAt,value
2019-06-01T00:00:16.512Z,1018.98
2019-06-01T00:01:16.455Z,1018.96
2019-06-01T00:02:16.454Z,1018.95
2019-06-01T00:03:16.435Z,1018.91
2019-06-01T00:04:16.429Z,1018.87
2019-06-01T00:05:16.439Z,1018.91
2019-06-01T00:06:16.398Z,1018.91
2019-06-01T00:07:16.389Z,1018.91
2019-06-01T00:08:16.413Z,1018.93
2019-06-01T00:09:16.391Z,1019.00
2019-06-01T00:10:16.402Z,1018.97
2019-06-01T00:11:16.341Z,1019.01
2019-06-01T00:12:16.332Z,1018.89
2019-06-01T00:13:16.331Z,1018.95
2019-06-01T00:14:16.307Z,1019.02
2019-06-01T00:15:16.364Z,1018.99
2019-06-01T00:16:16.291Z,1018.95
2019-06-01T00:17:16.279Z,1019.00
2019-06-01T00:18:16.265Z,1018.99
2019-06-01T00:19:16.264Z,1018.99
2019-06-01T00:20:16.265Z,1019.02
2019-06-01T00:21:16.253Z,1018.98
2019-06-01T00:22:16.239Z,1018.90
2019-06-01T00:23:16.224Z,1018.91
2019-06-01T00:24:16.211Z,1018.96
2019-06-01T00:25:16.204Z,1018.98
2019-06-01T00:26:16.185Z,1018.97
2019-06-01T00:27:16.172Z,1018.97
2019-06-01T00:28:16.158Z,1018.89
2019-06-01T00:29:16.186Z,1018.91
2019-06-01T00:30:26.737Z,1018.95
2019-06-01T00:31:17.129Z,1018.90
2019-06-01T00:32:16.110Z,1018.92
2019-06-01T00:33:16.098Z,1018.89
2019-06-01T00:34:16.091Z,1018.89
2019-06-01T00:35:16.119Z,1018.88
2019-06-01T00:36:16.124Z,1018.87
2019-06-01T00:37:16.081Z,1018.86
2019-06-01T00:38:16.064Z,1018.86
2019-06-01T00:39:16.047Z,1018.86
2019-06-01T00:40:16.046Z,1018.80
2019-06-01T00:41:16.047Z,1018.82
2019-06-01T00:42:16.022Z,1018.91
2019-06-01T00:43:15.997Z,1018.94
2019-06-01T00:44:15.998Z,1018.86
2019-06-01T00:45:16.034Z,1018.91
2019-06-01T00:46:15.985Z,1018.89
2019-06-01T00:47:15.980Z,1018.84
2019-06-01T00:48:15.970Z,1018.87
2019-06-01T00:49:15.938Z,1018.85
2019-06-01T00:50:15.941Z,1018.85
2019-06-01T00:51:15.934Z,1018.87
2019-06-01T00:52:15.901Z,1018.86
2019-06-01T00:53:15.891Z,1018.91
2019-06-01T00:54:15.870Z,1018.90
2019-06-01T00:55:15.907Z,1018.85
2019-06-01T00:56:15.858Z,1018.87
2019-06-01T00:57:15.843Z,1018.87
2019-06-01T00:58:15.836Z,1018.90
2019-06-01T00:59:15.821Z,1018.94
2019-06-01T01:00:15.834Z,1018.91
2019-06-01T01:01:15.790Z,1018.91
2019-06-01T01:02:15.780Z,1018.93
2019-06-01T01:03:15.782Z,1018.90
2019-06-01T01:04:15.758Z,1018.90
2019-06-01T01:05:15.769Z,1018.90
2019-06-01T01:06:15.745Z,1018.85
2019-06-01T01:07:15.762Z,1018.88
2019-06-01T01:08:15.716Z,1018.89
2019-06-01T01:09:15.696Z,1018.87
2019-06-01T01:10:15.725Z,1018.84
2019-06-01T01:11:15.690Z,1018.86
2019-06-01T01:12:15.673Z,1018.88
2019-06-01T01:13:15.664Z,1018.86
2019-06-01T01:14:15.661Z,1018.74
2019-06-01T01:15:15.686Z,1018.83
2019-06-01T01:16:15.642Z,1018.84
2019-06-01T01:17:15.613Z,1018.86
2019-06-01T01:18:15.607Z,1018.88
2019-06-01T01:19:15.594Z,1018.86
2019-06-01T01:20:15.613Z,1018.89
2019-06-01T01:21:15.575Z,1018.87
2019-06-01T01:22:15.606Z,1018.87
2019-06-01T01:23:15.542Z,1018.88
2019-06-01T01:24:15.535Z,1018.88
2019-06-01T01:25:15.560Z,1018.89
2019-06-01T01:26:15.508Z,1018.87
2019-06-01T01:27:15.502Z,1018.88
2019-06-01T01:28:15.508Z,1018.87
2019-06-01T01:29:15.488Z,1018.92
2019-06-01T01:30:15.484Z,1018.87
2019-06-01T01:31:15.452Z,1018.77
2019-06-01T01:32:15.439Z,1018.87
2019-06-01T01:33:15.444Z,1018.80
2019-06-01T01:34:15.436Z,1018.81
2019-06-01T01:35:15.464Z,1018.83
2019-06-01T01:36:15.406Z,1018.74
2019-06-01T01:37:15.389Z,1018.77
2019-06-01T01:38:15.379Z,1018.80
2019-06-01T01:39:15.363Z,1018.80
2019-06-01T01:40:15.396Z,1018.78
2019-06-01T01:41:15.357Z,1018.72
2019-06-01T01:42:15.332Z,1018.68
2019-06-01T01:43:15.336Z,1018.79
2019-06-01T01:44:15.322Z,1018.77
2019-06-01T01:45:15.325Z,1018.75
2019-06-01T01:46:15.296Z,1018.73
2019-06-01T01:47:15.281Z,1018.78
2019-06-01T01:48:15.273Z,1018.75
2019-06-01T01:49:15.275Z,1018.71
2019-06-01T01:50:15.284Z,1018.71
2019-06-01T01:51:15.242Z,1018.65
2019-06-01T01:52:15.230Z,1018.69
2019-06-01T01:53:15.220Z,1018.69
2019-06-01T01:54:15.226Z,1018.74
2019-06-01T01:55:15.195Z,1018.72
2019-06-01T01:56:15.201Z,1018.71
2019-06-01T01:57:15.165Z,1018.73
2019-06-01T01:58:15.160Z,1018.69
2019-06-01T01:59:15.142Z,1018.64
2019-06-01T02:00:15.170Z,1018.66
2019-06-01T02:01:22.334Z,1018.65
2019-06-01T02:02:16.107Z,1018.67
2019-06-01T02:03:15.102Z,1018.69
2019-06-01T02:04:15.096Z,1018.63
2019-06-01T02:05:15.105Z,1018.70
2019-06-01T02:06:15.121Z,1018.66
2019-06-01T02:07:15.055Z,1018.67
2019-06-01T02:08:15.049Z,1018.68
2019-06-01T02:09:15.045Z,1018.65
2019-06-01T02:10:15.029Z,1018.57
2019-06-01T02:11:15.038Z,1018.60
2019-06-01T02:12:15.050Z,1018.60
2019-06-01T02:13:15.000Z,1018.61
2019-06-01T02:14:14.985Z,1018.59
2019-06-01T02:15:14.978Z,1018.59
2019-06-01T02:16:14.975Z,1018.57
2019-06-01T02:17:14.951Z,1018.56
2019-06-01T02:18:14.962Z,1018.58
2019-06-01T02:19:14.935Z,1018.59
2019-06-01T02:20:14.931Z,1018.47
2019-06-01T02:21:14.949Z,1018.55
2019-06-01T02:22:14.894Z,1018.55
2019-06-01T02:23:14.914Z,1018.52
2019-06-01T02:24:14.886Z,1018.46
2019-06-01T02:25:14.892Z,1018.52
2019-06-01T02:26:14.907Z,1018.52
2019-06-01T02:27:14.856Z,1018.49
2019-06-01T02:28:14.842Z,1018.54
2019-06-01T02:29:14.834Z,1018.46
2019-06-01T02:30:14.815Z,1018.46
2019-06-01T02:31:14.850Z,1018.52
2019-06-01T02:32:14.807Z,1018.46
2019-06-01T02:33:14.817Z,1018.51
2019-06-01T02:34:14.772Z,1018.46
2019-06-01T02:35:14.803Z,1018.46
2019-06-01T02:36:14.793Z,1018.45
2019-06-01T02:37:14.741Z,1018.37
2019-06-01T02:38:14.745Z,1018.39
2019-06-01T02:39:14.742Z,1018.46
2019-06-01T02:40:14.715Z,1018.41
2019-06-01T02:41:14.762Z,1018.39
2019-06-01T02:42:14.707Z,1018.37
2019-06-01T02:43:14.682Z,1018.35
2019-06-01T02:44:14.674Z,1018.37
2019-06-01T02:45:14.669Z,1018.31
2019-06-01T02:46:14.683Z,1018.37
2019-06-01T02:47:14.641Z,1018.35
2019-06-01T02:48:14.644Z,1018.32
2019-06-01T02:49:14.621Z,1018.35
2019-06-01T02:50:14.615Z,1018.30
2019-06-01T02:51:14.596Z,1018.35
2019-06-01T02:52:14.608Z,1018.37
2019-06-01T02:53:14.575Z,1018.35
2019-06-01T02:54:14.573Z,1018.31
2019-06-01T02:55:14.546Z,1018.36
2019-06-01T02:56:14.543Z,1018.37
2019-06-01T02:57:14.579Z,1018.40
2019-06-01T02:58:14.576Z,1018.34
2019-06-01T02:59:14.515Z,1018.37
2019-06-01T03:00:14.504Z,1018.38
2019-06-01T03:01:14.498Z,1018.33
2019-06-01T03:02:15.143Z,1018.36
2019-06-01T03:03:14.502Z,1018.30
2019-06-01T03:04:14.476Z,1018.25
2019-06-01T03:05:14.448Z,1018.29
2019-06-01T03:06:14.436Z,1018.30
2019-06-01T03:07:14.425Z,1018.31
2019-06-01T03:08:14.438Z,1018.27
2019-06-01T03:09:14.418Z,1018.32
2019-06-01T03:10:14.391Z,1018.35
2019-06-01T03:11:14.374Z,1018.40
2019-06-01T03:12:14.374Z,1018.35
2019-06-01T03:13:14.389Z,1018.42
2019-06-01T03:14:14.358Z,1018.37
2019-06-01T03:15:14.342Z,1018.41
2019-06-01T03:16:14.329Z,1018.39
2019-06-01T03:17:14.339Z,1018.44
2019-06-01T03:18:14.303Z,1018.34
2019-06-01T03:19:14.315Z,1018.34
2019-06-01T03:20:14.286Z,1018.35
2019-06-01T03:21:14.285Z,1018.42
2019-06-01T03:22:14.274Z,1018.43
2019-06-01T03:23:14.253Z,1018.40
2019-06-01T03:24:14.262Z,1018.40
2019-06-01T03:25:14.227Z,1018.40
2019-06-01T03:26:14.223Z,1018.40
2019-06-01T03:27:14.204Z,1018.38
2019-06-01T03:28:14.206Z,1018.39
2019-06-01T03:29:14.214Z,1018.38
2019-06-01T03:30:15.566Z,1018.33
2019-06-01T03:31:14.182Z,1018.35
2019-06-01T03:32:34.408Z,1018.34
2019-06-01T03:33:15.164Z,1018.34
2019-06-01T03:34:14.242Z,1018.26
2019-06-01T03:35:14.122Z,1018.29
2019-06-01T03:36:14.136Z,1018.27
2019-06-01T03:37:14.107Z,1018.29
2019-06-01T03:38:14.091Z,1018.22
2019-06-01T03:39:14.120Z,1018.26
2019-06-01T03:40:23.460Z,1018.23
2019-06-01T03:41:15.061Z,1018.26
2019-06-01T03:42:14.095Z,1018.25
2019-06-01T03:43:14.033Z,1018.21
2019-06-01T03:44:14.052Z,1018.21
2019-06-01T03:45:14.010Z,1018.26
2019-06-01T03:46:14.013Z,1018.24
2019-06-01T03:47:13.997Z,1018.24
2019-06-01T03:48:14.013Z,1018.22
2019-06-01T03:49:13.985Z,1018.26
2019-06-01T03:50:13.966Z,1018.40
2019-06-01T03:51:13.943Z,1018.31
2019-06-01T03:52:13.941Z,1018.29
2019-06-01T03:53:13.926Z,1018.32
2019-06-01T03:54:13.930Z,1018.31
2019-06-01T03:55:13.909Z,1018.33
2019-06-01T03:56:13.922Z,1018.40
2019-06-01T03:57:13.907Z,1018.41
2019-06-01T03:58:13.881Z,1018.37
2019-06-01T03:59:13.926Z,1018.37
2019-06-01T04:00:13.851Z,1018.47
2019-06-01T04:01:13.852Z,1018.44
2019-06-01T04:02:13.847Z,1018.43
2019-06-01T04:03:13.828Z,1018.43
2019-06-01T04:04:13.830Z,1018.45
2019-06-01T04:05:13.796Z,1018.48
2019-06-01T04:06:13.793Z,1018.47
2019-06-01T04:07:13.793Z,1018.50
2019-06-01T04:08:13.763Z,1018.45
2019-06-01T04:09:13.783Z,1018.50
2019-06-01T04:10:13.752Z,1018.52
2019-06-01T04:11:13.732Z,1018.49
2019-06-01T04:12:13.727Z,1018.46
2019-06-01T04:13:13.728Z,1018.46
2019-06-01T04:14:13.720Z,1018.47
2019-06-01T04:15:16.696Z,1018.46
2019-06-01T04:16:13.668Z,1018.49
2019-06-01T04:17:13.655Z,1018.44
2019-06-01T04:18:14.076Z,1018.41
2019-06-01T04:19:13.699Z,1018.46
2019-06-01T04:20:13.653Z,1018.38
2019-06-01T04:21:13.625Z,1018.47
2019-06-01T04:22:13.614Z,1018.46
2019-06-01T04:23:13.600Z,1018.48
2019-06-01T04:24:13.587Z,1018.49
2019-06-01T04:25:13.698Z,1018.49
2019-06-01T04:26:13.601Z,1018.52
2019-06-01T04:27:13.549Z,1018.50
2019-06-01T04:28:13.544Z,1018.51
2019-06-01T04:29:13.529Z,1018.48
2019-06-01T04:30:13.789Z,1018.52
2019-06-01T04:31:13.515Z,1018.50
2019-06-01T04:32:13.522Z,1018.49
2019-06-01T04:33:13.490Z,1018.47
2019-06-01T04:34:13.482Z,1018.50
2019-06-01T04:35:13.483Z,1018.53
2019-06-01T04:36:13.456Z,1018.55
2019-06-01T04:37:13.446Z,1018.50
2019-06-01T04:38:13.505Z,1018.49
2019-06-01T04:39:13.846Z,1018.53
2019-06-01T04:40:13.717Z,1018.50
2019-06-01T04:41:14.125Z,1018.51
2019-06-01T04:42:13.904Z,1018.49
2019-06-01T04:43:14.168Z,1018.57
2019-06-01T04:44:14.357Z,1018.53
2019-06-01T04:45:14.396Z,1018.54
2019-06-01T04:46:14.462Z,1018.58
2019-06-01T04:47:14.487Z,1018.55
2019-06-01T04:48:14.586Z,1018.54
2019-06-01T04:49:13.456Z,1018.58
2019-06-01T04:50:13.324Z,1018.62
2019-06-01T04:51:13.523Z,1018.53
2019-06-01T04:52:13.585Z,1018.58
2019-06-01T04:53:13.522Z,1018.64
2019-06-01T04:54:14.407Z,1018.63
2019-06-01T04:55:13.284Z,1018.61
2019-06-01T04:56:13.242Z,1018.64
2019-06-01T04:57:13.276Z,1018.56
2019-06-01T04:58:13.237Z,1018.66
2019-06-01T04:59:13.214Z,1018.66
2019-06-01T05:00:25.705Z,1018.62
2019-06-01T05:01:15.136Z,1018.68
2019-06-01T05:02:13.236Z,1018.69
2019-06-01T05:03:13.559Z,1018.70
2019-06-01T05:04:13.359Z,1018.70
2019-06-01T05:05:13.429Z,1018.71
2019-06-01T05:06:13.467Z,1018.73
2019-06-01T05:07:13.540Z,1018.77
2019-06-01T05:08:13.937Z,1018.69
2019-06-01T05:09:13.400Z,1018.66
2019-06-01T05:10:14.319Z,1018.71
2019-06-01T05:11:13.559Z,1018.66
2019-06-01T05:12:13.627Z,1018.72
2019-06-01T05:13:13.588Z,1018.69
2019-06-01T05:14:13.772Z,1018.69
2019-06-01T05:15:13.977Z,1018.70
2019-06-01T05:16:14.786Z,1018.72
2019-06-01T05:17:14.919Z,1018.72
2019-06-01T05:18:14.170Z,1018.76
2019-06-01T05:19:14.083Z,1018.78
2019-06-01T05:20:12.984Z,1018.76
2019-06-01T05:21:13.086Z,1018.73
2019-06-01T05:22:12.949Z,1018.73
2019-06-01T05:23:12.950Z,1018.75
2019-06-01T05:24:12.930Z,1018.75
2019-06-01T05:25:13.624Z,1018.76
2019-06-01T05:26:13.255Z,1018.79
2019-06-01T05:27:13.134Z,1018.76
2019-06-01T05:28:13.299Z,1018.77
2019-06-01T05:29:13.515Z,1018.77
2019-06-01T05:30:13.698Z,1018.74
2019-06-01T05:31:16.724Z,1018.74
2019-06-01T05:32:14.641Z,1018.77
2019-06-01T05:33:31.068Z,1018.80
2019-06-01T05:34:13.888Z,1018.76
2019-06-01T05:35:13.779Z,1018.78
2019-06-01T05:36:14.153Z,1018.77
2019-06-01T05:37:14.163Z,1018.77
2019-06-01T05:38:12.782Z,1018.78
2019-06-01T05:39:12.776Z,1018.80
2019-06-01T05:40:12.768Z,1018.74
2019-06-01T05:41:13.234Z,1018.77
2019-06-01T05:42:12.734Z,1018.77
2019-06-01T05:43:15.682Z,1018.82
2019-06-01T05:44:12.928Z,1018.81
2019-06-01T05:45:13.050Z,1018.79
2019-06-01T05:46:13.931Z,1018.77
2019-06-01T05:47:12.682Z,1018.77
2019-06-01T05:48:16.369Z,1018.83
2019-06-01T05:49:14.732Z,1018.83
2019-06-01T05:50:12.641Z,1018.82
2019-06-01T05:51:15.217Z,1018.77
2019-06-01T05:52:12.666Z,1018.81
2019-06-01T05:53:12.620Z,1018.79
2019-06-01T05:54:12.614Z,1018.82
2019-06-01T05:55:12.927Z,1018.83
2019-06-01T05:56:12.762Z,1018.80
2019-06-01T05:57:12.714Z,1018.83
2019-06-01T05:58:12.931Z,1018.83
2019-06-01T05:59:12.549Z,1018.85
2019-06-01T06:00:13.080Z,1018.80
2019-06-01T06:01:12.608Z,1018.85
2019-06-01T06:02:13.222Z,1018.85
2019-06-01T06:03:15.365Z,1018.85
2019-06-01T06:04:13.513Z,1018.82
2019-06-01T06:05:12.624Z,1018.84
2019-06-01T06:06:13.655Z,1018.81
2019-06-01T06:07:12.801Z,1018.82
2019-06-01T06:08:13.124Z,1018.76
2019-06-01T06:09:13.316Z,1018.80
2019-06-01T06:10:12.428Z,1018.79
2019-06-01T06:11:12.896Z,1018.78
2019-06-01T06:12:13.218Z,1018.82
2019-06-01T06:13:13.345Z,1018.81
2019-06-01T06:14:13.364Z,1018.83
2019-06-01T06:15:13.538Z,1018.84
2019-06-01T06:16:13.694Z,1018.81
2019-06-01T06:17:14.553Z,1018.84
2019-06-01T06:18:12.331Z,1018.80
2019-06-01T06:19:12.844Z,1018.85
2019-06-01T06:20:12.371Z,1018.90
2019-06-01T06:21:12.338Z,1018.85
2019-06-01T06:22:12.301Z,1018.87
2019-06-01T06:23:12.299Z,1018.84
2019-06-01T06:24:12.269Z,1018.83
2019-06-01T06:25:14.196Z,1018.82
2019-06-01T06:26:14.997Z,1018.80
2019-06-01T06:27:12.485Z,1018.87
2019-06-01T06:28:12.577Z,1018.83
2019-06-01T06:29:12.741Z,1018.81
2019-06-01T06:30:12.793Z,1018.83
2019-06-01T06:31:12.929Z,1018.80
2019-06-01T06:32:12.894Z,1018.80
2019-06-01T06:33:13.168Z,1018.84
2019-06-01T06:34:13.258Z,1018.85
2019-06-01T06:35:13.259Z,1018.83
2019-06-01T06:36:12.201Z,1018.85
2019-06-01T06:37:12.151Z,1018.85
2019-06-01T06:38:12.137Z,1018.89
2019-06-01T06:39:12.100Z,1018.87
2019-06-01T06:40:12.100Z,1018.93
2019-06-01T06:41:12.087Z,1018.84
2019-06-01T06:42:12.126Z,1018.81
2019-06-01T06:43:21.332Z,1018.88
2019-06-01T06:44:14.302Z,1018.88
2019-06-01T06:45:12.044Z,1018.91
2019-06-01T06:46:12.040Z,1018.89
2019-06-01T06:47:12.047Z,1018.94
2019-06-01T06:48:12.014Z,1018.91
2019-06-01T06:49:12.004Z,1018.89
2019-06-01T06:50:14.579Z,1018.91
2019-06-01T06:51:12.018Z,1018.91
2019-06-01T06:52:11.983Z,1018.97
2019-06-01T06:53:24.474Z,1018.90
2019-06-01T06:54:14.619Z,1018.91
2019-06-01T06:55:11.941Z,1018.91
2019-06-01T06:56:11.922Z,1018.87
2019-06-01T06:57:12.006Z,1018.88
2019-06-01T06:58:11.919Z,1018.93
2019-06-01T06:59:11.912Z,1018.89
2019-06-01T07:00:11.886Z,1018.90
2019-06-01T07:01:12.262Z,1018.87
2019-06-01T07:02:11.927Z,1018.85
2019-06-01T07:03:11.840Z,1018.87
2019-06-01T07:04:13.181Z,1018.88
2019-06-01T07:05:11.821Z,1018.91
2019-06-01T07:06:11.817Z,1018.88
2019-06-01T07:07:11.858Z,1018.94
2019-06-01T07:08:11.826Z,1018.93
2019-06-01T07:09:11.782Z,1018.94
2019-06-01T07:10:11.774Z,1018.93
2019-06-01T07:11:12.180Z,1018.98
2019-06-01T07:12:11.780Z,1018.89
2019-06-01T07:13:11.746Z,1018.93
2019-06-01T07:14:11.726Z,1018.90
2019-06-01T07:15:11.748Z,1018.93
2019-06-01T07:16:11.711Z,1018.93
2019-06-01T07:17:15.472Z,1018.95
2019-06-01T07:18:11.697Z,1018.85
2019-06-01T07:19:11.693Z,1018.92
2019-06-01T07:20:11.656Z,1018.86
2019-06-01T07:21:11.672Z,1018.84
2019-06-01T07:22:11.648Z,1018.90
2019-06-01T07:23:11.650Z,1018.86
2019-06-01T07:24:11.622Z,1018.85
2019-06-01T07:25:11.606Z,1018.85
2019-06-01T07:26:11.603Z,1018.88
2019-06-01T07:27:11.621Z,1018.87
2019-06-01T07:28:11.583Z,1018.92
2019-06-01T07:29:11.596Z,1018.97
2019-06-01T07:30:11.573Z,1018.93
2019-06-01T07:31:11.552Z,1018.88
2019-06-01T07:32:11.556Z,1018.93
2019-06-01T07:33:11.520Z,1018.91
2019-06-01T07:34:29.138Z,1018.93
2019-06-01T07:35:12.500Z,1018.91
2019-06-01T07:36:11.502Z,1018.90
2019-06-01T07:37:11.524Z,1018.92
2019-06-01T07:38:11.482Z,1018.95
2019-06-01T07:39:11.470Z,1018.94
2019-06-01T07:40:13.614Z,1018.98
2019-06-01T07:41:11.452Z,1018.98
2019-06-01T07:42:11.480Z,1018.93
2019-06-01T07:43:11.420Z,1018.89
2019-06-01T07:44:11.417Z,1018.94
2019-06-01T07:45:11.408Z,1019.04
2019-06-01T07:46:11.409Z,1018.98
2019-06-01T07:47:11.387Z,1018.90
2019-06-01T07:48:11.386Z,1019.01
2019-06-01T07:49:11.358Z,1018.96
2019-06-01T07:50:11.374Z,1019.01
2019-06-01T07:51:11.386Z,1018.97
2019-06-01T07:52:13.451Z,1018.97
2019-06-01T07:53:11.342Z,1018.96
2019-06-01T07:54:11.299Z,1018.99
2019-06-01T07:55:11.294Z,1018.94
2019-06-01T07:56:11.284Z,1019.05
2019-06-01T07:57:11.274Z,1019.11
2019-06-01T07:58:11.287Z,1019.07
2019-06-01T07:59:11.280Z,1019.08
2019-06-01T08:00:11.247Z,1019.02
2019-06-01T08:01:11.230Z,1019.09
2019-06-01T08:02:11.241Z,1019.11
2019-06-01T08:03:11.248Z,1019.04
2019-06-01T08:04:11.205Z,1019.08
2019-06-01T08:05:11.195Z,1019.09
2019-06-01T08:06:11.182Z,1019.12
2019-06-01T08:07:11.198Z,1019.06
2019-06-01T08:08:11.181Z,1019.08
2019-06-01T08:09:11.147Z,1019.00
2019-06-01T08:10:11.133Z,1019.04
2019-06-01T08:11:11.140Z,1019.03
2019-06-01T08:12:11.137Z,1018.96
2019-06-01T08:13:11.132Z,1019.03
2019-06-01T08:14:11.097Z,1019.00
2019-06-01T08:15:11.094Z,1019.06
2019-06-01T08:16:11.091Z,1019.03
2019-06-01T08:17:11.068Z,1019.06
2019-06-01T08:18:11.099Z,1019.04
2019-06-01T08:19:11.087Z,1019.06
2019-06-01T08:20:11.067Z,1019.04
2019-06-01T08:21:11.030Z,1018.98
2019-06-01T08:22:11.035Z,1019.00
2019-06-01T08:23:11.047Z,1018.95
2019-06-01T08:24:11.021Z,1018.93
2019-06-01T08:25:10.989Z,1019.01
2019-06-01T08:26:10.979Z,1019.04
2019-06-01T08:27:10.992Z,1019.03
2019-06-01T08:28:10.983Z,1019.00
2019-06-01T08:29:10.983Z,1018.98
2019-06-01T08:30:10.926Z,1018.97
2019-06-01T08:31:10.922Z,1018.89
2019-06-01T08:32:10.935Z,1018.85
2019-06-01T08:33:10.918Z,1018.90
2019-06-01T08:34:10.924Z,1018.93
2019-06-01T08:35:10.876Z,1018.87
2019-06-01T08:36:10.881Z,1018.89
2019-06-01T08:37:10.868Z,1018.83
2019-06-01T08:38:10.856Z,1018.80
2019-06-01T08:39:10.836Z,1018.86
2019-06-01T08:40:10.871Z,1018.90
2019-06-01T08:41:10.816Z,1018.87
2019-06-01T08:42:10.807Z,1018.83
2019-06-01T08:43:10.826Z,1018.89
2019-06-01T08:44:10.817Z,1018.90
2019-06-01T08:45:10.771Z,1019.00
2019-06-01T08:46:10.773Z,1018.90
2019-06-01T08:47:10.759Z,1018.90
2019-06-01T08:48:10.739Z,1018.87
2019-06-01T08:49:10.793Z,1018.82
2019-06-01T08:50:10.713Z,1018.79
2019-06-01T08:51:10.705Z,1018.71
2019-06-01T08:52:10.719Z,1018.77
2019-06-01T08:53:10.700Z,1018.72
2019-06-01T08:54:10.720Z,1018.72
2019-06-01T08:55:10.667Z,1018.70
2019-06-01T08:56:10.684Z,1018.70
2019-06-01T08:57:10.658Z,1018.73
2019-06-01T08:58:10.640Z,1018.68
2019-06-01T08:59:10.702Z,1018.67
2019-06-01T09:00:10.624Z,1018.62
2019-06-01T09:01:10.602Z,1018.67
2019-06-01T09:02:10.632Z,1018.70
2019-06-01T09:03:10.584Z,1018.68
2019-06-01T09:04:10.598Z,1018.65
2019-06-01T09:05:23.382Z,1018.67
2019-06-01T09:06:11.552Z,1018.62
2019-06-01T09:07:10.541Z,1018.63
2019-06-01T09:08:10.568Z,1018.61
2019-06-01T09:09:11.942Z,1018.51
2019-06-01T09:10:10.513Z,1018.55
2019-06-01T09:11:10.508Z,1018.54
2019-06-01T09:12:10.541Z,1018.55
2019-06-01T09:13:10.476Z,1018.57
2019-06-01T09:14:10.490Z,1018.52
2019-06-01T09:15:10.453Z,1018.53
2019-06-01T09:16:10.451Z,1018.50
2019-06-01T09:17:10.449Z,1018.55
2019-06-01T09:18:10.440Z,1018.57
2019-06-01T09:19:11.579Z,1018.50
2019-06-01T09:20:10.411Z,1018.53
2019-06-01T09:21:10.387Z,1018.55
2019-06-01T09:22:10.383Z,1018.57
2019-06-01T09:23:10.381Z,1018.53
2019-06-01T09:24:10.374Z,1018.56
2019-06-01T09:25:10.363Z,1018.58
2019-06-01T09:26:10.408Z,1018.60
2019-06-01T09:27:10.341Z,1018.47
2019-06-01T09:28:10.319Z,1018.53
2019-06-01T09:29:10.322Z,1018.53
2019-06-01T09:30:10.315Z,1018.50
2019-06-01T09:31:10.278Z,1018.48
2019-06-01T09:32:11.370Z,1018.52
2019-06-01T09:33:10.335Z,1018.49
2019-06-01T09:34:10.271Z,1018.53
2019-06-01T09:35:10.258Z,1018.48
2019-06-01T09:36:10.231Z,1018.51
2019-06-01T09:37:10.225Z,1018.56
2019-06-01T09:38:10.213Z,1018.50
2019-06-01T09:39:10.211Z,1018.49
2019-06-01T09:40:10.216Z,1018.48
2019-06-01T09:41:10.193Z,1018.40
2019-06-01T09:42:10.173Z,1018.49
2019-06-01T09:43:10.167Z,1018.44
2019-06-01T09:44:10.137Z,1018.54
2019-06-01T09:45:10.173Z,1018.50
2019-06-01T09:46:10.134Z,1018.47
2019-06-01T09:47:10.116Z,1018.41
2019-06-01T09:48:10.098Z,1018.41
2019-06-01T09:49:10.095Z,1018.43
2019-06-01T09:50:10.091Z,1018.48
2019-06-01T09:51:10.105Z,1018.43
2019-06-01T09:52:12.568Z,1018.44
2019-06-01T09:53:10.104Z,1018.41
2019-06-01T09:54:10.059Z,1018.39
2019-06-01T09:55:10.040Z,1018.38
2019-06-01T09:56:10.050Z,1018.40
2019-06-01T09:57:10.007Z,1018.44
2019-06-01T09:58:10.005Z,1018.34
2019-06-01T09:59:09.998Z,1018.43
2019-06-01T10:00:09.972Z,1018.46
2019-06-01T10:01:10.004Z,1018.40
2019-06-01T10:02:09.969Z,1018.40
2019-06-01T10:03:09.955Z,1018.39
2019-06-01T10:04:10.015Z,1018.36
2019-06-01T10:05:09.946Z,1018.37
2019-06-01T10:06:13.825Z,1018.38
2019-06-01T10:07:09.917Z,1018.68
2019-06-01T10:08:09.891Z,1018.33
2019-06-01T10:09:09.893Z,1018.36
2019-06-01T10:10:09.931Z,1018.43
2019-06-01T10:11:09.872Z,1018.68
2019-06-01T10:12:09.887Z,1018.45
2019-06-01T10:13:09.842Z,1018.82
2019-06-01T10:14:09.841Z,1018.44
2019-06-01T10:15:09.816Z,1018.53
2019-06-01T10:16:09.827Z,1018.69
2019-06-01T10:17:09.811Z,1018.66
2019-06-01T10:18:09.805Z,1018.66
2019-06-01T10:19:09.774Z,1018.50
2019-06-01T10:20:09.763Z,1018.54
2019-06-01T10:21:09.760Z,1018.48
2019-06-01T10:22:09.739Z,1018.46
2019-06-01T10:23:09.770Z,1018.29
2019-06-01T10:24:09.716Z,1018.42
2019-06-01T10:25:09.713Z,1018.45
2019-06-01T10:26:09.739Z,1018.32
2019-06-01T10:27:09.686Z,1018.72
2019-06-01T10:28:09.685Z,1018.42
2019-06-01T10:29:09.713Z,1018.20
2019-06-01T10:30:09.657Z,1018.14
2019-06-01T10:31:09.657Z,1018.53
2019-06-01T10:32:09.634Z,1018.41
2019-06-01T10:33:09.646Z,1018.48
2019-06-01T10:34:09.634Z,1018.17
2019-06-01T10:35:09.615Z,1018.43
2019-06-01T10:36:19.964Z,1018.15
2019-06-01T10:37:10.622Z,1018.32
2019-06-01T10:38:09.574Z,1018.18
2019-06-01T10:39:09.575Z,1018.09
2019-06-01T10:40:09.549Z,1018.16
2019-06-01T10:41:09.595Z,1018.11
2019-06-01T10:42:09.536Z,1018.18
2019-06-01T10:43:09.518Z,1018.12
2019-06-01T10:44:09.540Z,1018.08
2019-06-01T10:45:09.508Z,1018.06
2019-06-01T10:46:09.520Z,1018.07
2019-06-01T10:47:09.510Z,1018.06
2019-06-01T10:48:09.479Z,1018.07
2019-06-01T10:49:09.486Z,1018.11
2019-06-01T10:50:09.480Z,1018.08
2019-06-01T10:51:09.455Z,1018.12
2019-06-01T10:52:09.443Z,1018.37
2019-06-01T10:53:09.458Z,1018.11
2019-06-01T10:54:09.414Z,1018.34
2019-06-01T10:55:09.425Z,1018.05
2019-06-01T10:56:09.390Z,1018.15
2019-06-01T10:57:09.376Z,1018.15
2019-06-01T10:58:09.397Z,1018.16
2019-06-01T10:59:09.374Z,1018.25
2019-06-01T11:00:09.375Z,1018.23
2019-06-01T11:01:09.334Z,1018.02
2019-06-01T11:02:09.342Z,1018.18
2019-06-01T11:03:09.346Z,1018.23
2019-06-01T11:04:09.305Z,1018.22
2019-06-01T11:05:09.321Z,1018.17
2019-06-01T11:06:09.296Z,1018.24
2019-06-01T11:07:09.278Z,1017.79
2019-06-01T11:08:09.275Z,1018.02
2019-06-01T11:09:09.291Z,1017.87
2019-06-01T11:10:09.297Z,1018.18
2019-06-01T11:11:09.251Z,1017.91
2019-06-01T11:12:09.240Z,1018.12
2019-06-01T11:13:09.226Z,1018.14
2019-06-01T11:14:09.217Z,1018.12
2019-06-01T11:15:09.267Z,1017.72
2019-06-01T11:16:09.187Z,1018.18
2019-06-01T11:17:09.207Z,1018.19
2019-06-01T11:18:09.171Z,1018.14
2019-06-01T11:19:09.174Z,1018.12
2019-06-01T11:20:09.191Z,1018.11
2019-06-01T11:21:09.154Z,1017.94
2019-06-01T11:22:09.185Z,1017.67
2019-06-01T11:23:09.133Z,1018.09
2019-06-01T11:24:09.117Z,1017.83
2019-06-01T11:25:09.129Z,1018.24
2019-06-01T11:26:09.095Z,1017.93
2019-06-01T11:27:09.111Z,1018.08
2019-06-01T11:28:09.080Z,1018.05
2019-06-01T11:29:09.067Z,1017.79
2019-06-01T11:30:09.102Z,1017.76
2019-06-01T11:31:09.053Z,1017.73
2019-06-01T11:32:09.080Z,1017.84
2019-06-01T11:33:09.025Z,1018.04
2019-06-01T11:34:09.024Z,1018.08
2019-06-01T11:35:09.021Z,1017.96
2019-06-01T11:36:09.007Z,1017.92
2019-06-01T11:37:09.030Z,1017.93
2019-06-01T11:38:08.982Z,1017.52
2019-06-01T11:39:08.964Z,1017.82
2019-06-01T11:40:08.992Z,1017.57
2019-06-01T11:41:08.963Z,1017.56
2019-06-01T11:42:08.942Z,1017.59
2019-06-01T11:43:08.945Z,1017.99
2019-06-01T11:44:08.931Z,1017.91
2019-06-01T11:45:08.990Z,1017.92
2019-06-01T11:46:08.905Z,1017.85
2019-06-01T11:47:08.899Z,1017.77
2019-06-01T11:48:08.875Z,1017.54
2019-06-01T11:49:08.878Z,1017.82
2019-06-01T11:50:08.867Z,1017.79
2019-06-01T11:51:08.869Z,1017.76
2019-06-01T11:52:08.850Z,1017.88
2019-06-01T11:53:08.839Z,1017.84
2019-06-01T11:54:08.821Z,1017.80
2019-06-01T11:55:08.826Z,1017.78
2019-06-01T11:56:08.826Z,1017.74
2019-06-01T11:57:08.792Z,1017.79
2019-06-01T11:58:08.815Z,1017.77
2019-06-01T11:59:08.802Z,1017.48
2019-06-01T12:00:08.796Z,1017.70
2019-06-01T12:01:08.762Z,1017.73
2019-06-01T12:02:08.776Z,1017.73
2019-06-01T12:03:08.738Z,1017.70
2019-06-01T12:04:08.728Z,1017.38
2019-06-01T12:05:08.797Z,1017.35